sensor_id;sensor_type;location;lat;lon;timestamp;pressure;altitude;pressure_sealevel;temperature;humidity
41703;BME280;861;48.808;9.006;2023-07-09T00:02:14;97428.47;;;24.73;55.10
41703;BME280;861;48.808;9.006;2023-07-09T00:04:42;97423.22;;;24.66;55.38
41703;BME280;861;48.808;9.006;2023-07-09T00:07:27;97426.00;;;24.66;55.43
41703;BME280;861;48.808;9.006;2023-07-09T00:09:57;97424.00;;;24.66;55.70
41703;BME280;861;48.808;9.006;2023-07-09T00:12:24;97424.00;;;24.66;55.36
41703;BME280;861;48.808;9.006;2023-07-09T00:14:53;97430.81;;;24.56;55.82
41703;BME280;861;48.808;9.006;2023-07-09T00:17:32;97431.94;;;24.50;56.27
41703;BME280;861;48.808;9.006;2023-07-09T00:20:05;97432.56;;;24.45;55.99
41703;BME280;861;48.808;9.006;2023-07-09T00:22:41;97443.09;;;24.41;56.53
41703;BME280;861;48.808;9.006;2023-07-09T00:25:11;97438.13;;;24.36;56.16
41703;BME280;861;48.808;9.006;2023-07-09T00:27:43;97445.72;;;24.35;56.19
41703;BME280;861;48.808;9.006;2023-07-09T00:30:21;97439.38;;;24.26;57.13
41703;BME280;861;48.808;9.006;2023-07-09T00:32:52;97446.22;;;24.16;56.68
41703;BME280;861;48.808;9.006;2023-07-09T00:35:23;97441.91;;;23.96;57.06
41703;BME280;861;48.808;9.006;2023-07-09T00:37:50;97447.09;;;23.94;57.35
41703;BME280;861;48.808;9.006;2023-07-09T00:40:22;97454.22;;;23.86;57.72
41703;BME280;861;48.808;9.006;2023-07-09T00:42:53;97456.22;;;23.86;57.28
41703;BME280;861;48.808;9.006;2023-07-09T00:45:25;97455.00;;;24.05;57.27
41703;BME280;861;48.808;9.006;2023-07-09T00:48:01;97456.88;;;24.08;57.39
41703;BME280;861;48.808;9.006;2023-07-09T00:50:47;97447.28;;;24.00;57.01
41703;BME280;861;48.808;9.006;2023-07-09T00:53:32;97453.13;;;23.93;57.72
41703;BME280;861;48.808;9.006;2023-07-09T00:56:09;97455.59;;;23.91;57.60
41703;BME280;861;48.808;9.006;2023-07-09T00:58:45;97446.34;;;23.76;57.99
41703;BME280;861;48.808;9.006;2023-07-09T01:01:19;97452.66;;;23.76;58.05
41703;BME280;861;48.808;9.006;2023-07-09T01:03:52;97448.34;;;23.66;58.00
41703;BME280;861;48.808;9.006;2023-07-09T01:06:39;97449.25;;;23.63;58.31
41703;BME280;861;48.808;9.006;2023-07-09T01:09:10;97451.44;;;23.68;58.40
41703;BME280;861;48.808;9.006;2023-07-09T01:11:37;97457.13;;;23.65;58.33
41703;BME280;861;48.808;9.006;2023-07-09T01:14:14;97456.97;;;23.59;58.33
41703;BME280;861;48.808;9.006;2023-07-09T01:17:00;97460.69;;;23.65;58.40
41703;BME280;861;48.808;9.006;2023-07-09T01:19:36;97461.59;;;23.62;58.54
41703;BME280;861;48.808;9.006;2023-07-09T01:22:19;97461.78;;;23.59;58.48
41703;BME280;861;48.808;9.006;2023-07-09T01:27:41;97462.31;;;23.27;60.03
41703;BME280;861;48.808;9.006;2023-07-09T01:30:32;97461.00;;;23.10;60.49
41703;BME280;861;48.808;9.006;2023-07-09T01:33:05;97462.81;;;23.04;60.61
41703;BME280;861;48.808;9.006;2023-07-09T01:35:38;97461.59;;;23.14;60.56
41703;BME280;861;48.808;9.006;2023-07-09T01:38:09;97456.47;;;23.03;60.80
41703;BME280;861;48.808;9.006;2023-07-09T01:40:37;97465.59;;;23.04;60.54
41703;BME280;861;48.808;9.006;2023-07-09T01:43:05;97459.72;;;23.02;60.28
41703;BME280;861;48.808;9.006;2023-07-09T01:45:34;97463.66;;;23.22;60.42
41703;BME280;861;48.808;9.006;2023-07-09T01:48:03;97456.44;;;23.34;59.62
41703;BME280;861;48.808;9.006;2023-07-09T01:50:30;97464.50;;;23.32;59.88
41703;BME280;861;48.808;9.006;2023-07-09T01:52:58;97457.81;;;23.29;59.99
41703;BME280;861;48.808;9.006;2023-07-09T01:55:25;97461.19;;;23.24;59.96
41703;BME280;861;48.808;9.006;2023-07-09T01:57:52;97455.28;;;23.13;60.30
41703;BME280;861;48.808;9.006;2023-07-09T02:00:20;97452.00;;;23.06;60.75
41703;BME280;861;48.808;9.006;2023-07-09T02:02:47;97453.25;;;23.05;60.58
41703;BME280;861;48.808;9.006;2023-07-09T02:05:20;97462.50;;;23.02;61.09
41703;BME280;861;48.808;9.006;2023-07-09T02:07:47;97463.22;;;22.93;61.02
41703;BME280;861;48.808;9.006;2023-07-09T02:10:18;97464.94;;;23.00;60.86
41703;BME280;861;48.808;9.006;2023-07-09T02:12:47;97467.72;;;23.00;61.13
41703;BME280;861;48.808;9.006;2023-07-09T02:15:16;97456.75;;;22.96;61.14
41703;BME280;861;48.808;9.006;2023-07-09T02:17:44;97459.38;;;22.91;61.27
41703;BME280;861;48.808;9.006;2023-07-09T02:20:11;97459.00;;;22.80;61.44
41703;BME280;861;48.808;9.006;2023-07-09T02:22:40;97462.09;;;22.82;61.40
41703;BME280;861;48.808;9.006;2023-07-09T02:25:08;97460.66;;;22.77;61.14
41703;BME280;861;48.808;9.006;2023-07-09T02:27:37;97459.97;;;22.86;61.50
41703;BME280;861;48.808;9.006;2023-07-09T02:30:06;97467.66;;;22.82;61.27
41703;BME280;861;48.808;9.006;2023-07-09T02:32:34;97469.41;;;22.66;61.89
41703;BME280;861;48.808;9.006;2023-07-09T02:35:01;97462.91;;;22.39;62.77
41703;BME280;861;48.808;9.006;2023-07-09T02:37:27;97468.97;;;22.46;62.41
41703;BME280;861;48.808;9.006;2023-07-09T02:39:54;97464.78;;;22.63;62.26
41703;BME280;861;48.808;9.006;2023-07-09T02:42:23;97467.91;;;22.75;61.98
41703;BME280;861;48.808;9.006;2023-07-09T02:44:51;97472.69;;;22.74;61.69
41703;BME280;861;48.808;9.006;2023-07-09T02:47:18;97470.69;;;22.75;61.64
41703;BME280;861;48.808;9.006;2023-07-09T02:49:45;97469.63;;;22.72;61.86
41703;BME280;861;48.808;9.006;2023-07-09T02:52:12;97475.63;;;22.71;61.97
41703;BME280;861;48.808;9.006;2023-07-09T02:54:38;97476.38;;;22.71;61.88
41703;BME280;861;48.808;9.006;2023-07-09T02:57:05;97478.84;;;22.69;62.19
41703;BME280;861;48.808;9.006;2023-07-09T02:59:33;97476.16;;;22.56;62.02
41703;BME280;861;48.808;9.006;2023-07-09T03:02:01;97477.38;;;22.55;62.37
41703;BME280;861;48.808;9.006;2023-07-09T03:04:28;97480.47;;;22.57;62.11
41703;BME280;861;48.808;9.006;2023-07-09T03:06:58;97481.88;;;22.62;62.15
41703;BME280;861;48.808;9.006;2023-07-09T03:09:26;97479.91;;;22.62;62.38
41703;BME280;861;48.808;9.006;2023-07-09T03:11:54;97481.56;;;22.60;62.49
41703;BME280;861;48.808;9.006;2023-07-09T03:14:22;97488.47;;;22.55;62.47
41703;BME280;861;48.808;9.006;2023-07-09T03:16:48;97483.84;;;22.52;62.53
41703;BME280;861;48.808;9.006;2023-07-09T03:19:15;97493.50;;;22.48;62.69
41703;BME280;861;48.808;9.006;2023-07-09T03:21:42;97485.28;;;22.44;62.94
41703;BME280;861;48.808;9.006;2023-07-09T03:24:08;97489.31;;;22.43;63.01
41703;BME280;861;48.808;9.006;2023-07-09T03:26:35;97481.69;;;22.35;63.00
41703;BME280;861;48.808;9.006;2023-07-09T03:29:03;97481.41;;;22.20;63.48
41703;BME280;861;48.808;9.006;2023-07-09T03:31:30;97485.75;;;22.21;63.30
41703;BME280;861;48.808;9.006;2023-07-09T03:34:01;97484.97;;;22.21;63.69
41703;BME280;861;48.808;9.006;2023-07-09T03:36:28;97486.66;;;22.18;63.63
41703;BME280;861;48.808;9.006;2023-07-09T03:38:55;97490.19;;;21.97;64.23
41703;BME280;861;48.808;9.006;2023-07-09T03:41:21;97487.56;;;21.81;64.90
41703;BME280;861;48.808;9.006;2023-07-09T03:43:48;97486.63;;;21.97;64.50
41703;BME280;861;48.808;9.006;2023-07-09T03:46:16;97491.94;;;22.04;64.11
41703;BME280;861;48.808;9.006;2023-07-09T03:48:43;97493.22;;;22.12;64.06
41703;BME280;861;48.808;9.006;2023-07-09T03:51:09;97493.22;;;22.12;64.01
41703;BME280;861;48.808;9.006;2023-07-09T03:53:36;97497.22;;;22.11;64.00
41703;BME280;861;48.808;9.006;2023-07-09T03:56:03;97495.69;;;22.10;63.88
41703;BME280;861;48.808;9.006;2023-07-09T03:58:30;97499.34;;;22.07;63.92
41703;BME280;861;48.808;9.006;2023-07-09T04:00:56;97494.81;;;22.00;64.03
41703;BME280;861;48.808;9.006;2023-07-09T04:03:23;97499.16;;;22.01;64.27
41703;BME280;861;48.808;9.006;2023-07-09T04:05:51;97503.94;;;22.01;64.37
41703;BME280;861;48.808;9.006;2023-07-09T04:08:17;97505.47;;;22.02;64.14
41703;BME280;861;48.808;9.006;2023-07-09T04:10:44;97493.47;;;22.05;64.39
41703;BME280;861;48.808;9.006;2023-07-09T04:13:11;97499.91;;;22.02;64.48
41703;BME280;861;48.808;9.006;2023-07-09T04:15:37;97489.72;;;21.99;64.28
41703;BME280;861;48.808;9.006;2023-07-09T04:18:04;97500.72;;;22.02;64.45
41703;BME280;861;48.808;9.006;2023-07-09T04:20:31;97501.19;;;21.88;64.99
41703;BME280;861;48.808;9.006;2023-07-09T04:22:57;97506.84;;;21.85;64.72
41703;BME280;861;48.808;9.006;2023-07-09T04:25:24;97505.19;;;21.75;65.33
41703;BME280;861;48.808;9.006;2023-07-09T04:27:51;97507.31;;;21.83;65.12
41703;BME280;861;48.808;9.006;2023-07-09T04:30:18;97502.41;;;21.87;64.78
41703;BME280;861;48.808;9.006;2023-07-09T04:32:44;97504.94;;;21.94;64.92
41703;BME280;861;48.808;9.006;2023-07-09T04:35:14;97496.69;;;22.03;64.95
41703;BME280;861;48.808;9.006;2023-07-09T04:37:41;97502.13;;;22.07;64.87
41703;BME280;861;48.808;9.006;2023-07-09T04:40:11;97506.19;;;22.15;64.33
41703;BME280;861;48.808;9.006;2023-07-09T04:42:40;97504.66;;;22.14;64.72
41703;BME280;861;48.808;9.006;2023-07-09T04:45:10;97502.13;;;22.07;65.06
41703;BME280;861;48.808;9.006;2023-07-09T04:47:38;97503.44;;;22.15;64.93
41703;BME280;861;48.808;9.006;2023-07-09T04:50:08;97503.88;;;22.13;65.16
41703;BME280;861;48.808;9.006;2023-07-09T04:52:36;97509.75;;;22.15;64.80
41703;BME280;861;48.808;9.006;2023-07-09T04:55:03;97513.63;;;22.18;64.93
41703;BME280;861;48.808;9.006;2023-07-09T04:57:30;97519.22;;;22.27;65.01
41703;BME280;861;48.808;9.006;2023-07-09T04:59:57;97521.03;;;22.21;64.93
41703;BME280;861;48.808;9.006;2023-07-09T05:02:24;97523.25;;;22.26;65.29
41703;BME280;861;48.808;9.006;2023-07-09T05:04:52;97528.97;;;22.31;64.99
41703;BME280;861;48.808;9.006;2023-07-09T05:07:18;97522.09;;;22.36;65.57
41703;BME280;861;48.808;9.006;2023-07-09T05:09:45;97526.88;;;22.35;64.95
41703;BME280;861;48.808;9.006;2023-07-09T05:12:12;97519.91;;;22.31;65.18
41703;BME280;861;48.808;9.006;2023-07-09T05:14:38;97522.03;;;22.48;65.29
41703;BME280;861;48.808;9.006;2023-07-09T05:17:06;97524.13;;;22.57;64.78
41703;BME280;861;48.808;9.006;2023-07-09T05:19:35;97528.31;;;22.61;64.82
41703;BME280;861;48.808;9.006;2023-07-09T05:22:02;97532.06;;;22.67;65.00
41703;BME280;861;48.808;9.006;2023-07-09T05:24:28;97528.84;;;22.69;64.94
41703;BME280;861;48.808;9.006;2023-07-09T05:26:55;97524.53;;;22.77;65.18
41703;BME280;861;48.808;9.006;2023-07-09T05:29:24;97532.69;;;22.72;65.45
41703;BME280;861;48.808;9.006;2023-07-09T05:31:52;97526.25;;;22.75;65.22
41703;BME280;861;48.808;9.006;2023-07-09T05:34:19;97534.13;;;22.76;65.36
41703;BME280;861;48.808;9.006;2023-07-09T05:36:45;97529.97;;;22.81;65.39
41703;BME280;861;48.808;9.006;2023-07-09T05:39:13;97530.63;;;22.85;64.92
41703;BME280;861;48.808;9.006;2023-07-09T05:41:40;97532.94;;;22.86;65.12
41703;BME280;861;48.808;9.006;2023-07-09T05:44:06;97529.13;;;22.93;65.28
41703;BME280;861;48.808;9.006;2023-07-09T05:46:37;97528.06;;;22.99;65.30
41703;BME280;861;48.808;9.006;2023-07-09T05:49:06;97531.81;;;23.05;64.64
41703;BME280;861;48.808;9.006;2023-07-09T05:51:33;97530.94;;;23.17;64.60
41703;BME280;861;48.808;9.006;2023-07-09T05:54:00;97537.00;;;23.25;64.45
41703;BME280;861;48.808;9.006;2023-07-09T05:56:27;97537.34;;;23.27;63.94
41703;BME280;861;48.808;9.006;2023-07-09T05:58:54;97545.25;;;23.37;63.13
41703;BME280;861;48.808;9.006;2023-07-09T06:01:24;97541.16;;;23.60;62.41
41703;BME280;861;48.808;9.006;2023-07-09T06:03:51;97536.09;;;23.67;62.28
41703;BME280;861;48.808;9.006;2023-07-09T06:06:17;97540.25;;;23.72;62.87
41703;BME280;861;48.808;9.006;2023-07-09T06:08:44;97549.72;;;23.83;61.96
41703;BME280;861;48.808;9.006;2023-07-09T06:11:11;97536.59;;;23.93;61.36
41703;BME280;861;48.808;9.006;2023-07-09T06:13:37;97543.00;;;24.02;61.27
41703;BME280;861;48.808;9.006;2023-07-09T06:16:05;97551.94;;;24.06;61.37
41703;BME280;861;48.808;9.006;2023-07-09T06:18:32;97538.81;;;24.16;61.37
41703;BME280;861;48.808;9.006;2023-07-09T06:21:02;97534.50;;;24.24;60.61
41703;BME280;861;48.808;9.006;2023-07-09T06:23:31;97539.91;;;24.46;60.60
41703;BME280;861;48.808;9.006;2023-07-09T06:25:57;97534.19;;;24.49;60.61
41703;BME280;861;48.808;9.006;2023-07-09T06:28:27;97544.09;;;24.68;59.96
41703;BME280;861;48.808;9.006;2023-07-09T06:30:55;97543.47;;;24.73;59.90
41703;BME280;861;48.808;9.006;2023-07-09T06:33:25;97541.13;;;24.81;59.70
41703;BME280;861;48.808;9.006;2023-07-09T06:35:59;97535.88;;;24.83;59.40
41703;BME280;861;48.808;9.006;2023-07-09T06:38:28;97530.72;;;24.99;59.22
41703;BME280;861;48.808;9.006;2023-07-09T06:40:56;97535.34;;;25.11;59.32
41703;BME280;861;48.808;9.006;2023-07-09T06:43:24;97531.41;;;25.27;58.96
41703;BME280;861;48.808;9.006;2023-07-09T06:46:02;97544.72;;;25.32;58.37
41703;BME280;861;48.808;9.006;2023-07-09T06:48:29;97537.22;;;25.47;58.29
41703;BME280;861;48.808;9.006;2023-07-09T06:50:58;97540.56;;;25.60;57.79
41703;BME280;861;48.808;9.006;2023-07-09T06:53:28;97540.06;;;25.71;57.44
41703;BME280;861;48.808;9.006;2023-07-09T06:55:55;97546.00;;;25.87;57.71
41703;BME280;861;48.808;9.006;2023-07-09T06:58:27;97541.75;;;26.01;58.19
41703;BME280;861;48.808;9.006;2023-07-09T07:00:55;97539.50;;;26.14;56.97
41703;BME280;861;48.808;9.006;2023-07-09T07:03:23;97542.03;;;26.26;56.04
41703;BME280;861;48.808;9.006;2023-07-09T07:05:54;97536.97;;;26.39;56.11
41703;BME280;861;48.808;9.006;2023-07-09T07:08:23;97540.56;;;26.54;54.75
41703;BME280;861;48.808;9.006;2023-07-09T07:10:59;97542.50;;;26.63;54.58
41703;BME280;861;48.808;9.006;2023-07-09T07:13:34;97540.81;;;26.80;54.87
41703;BME280;861;48.808;9.006;2023-07-09T07:16:07;97542.19;;;26.99;54.32
41703;BME280;861;48.808;9.006;2023-07-09T07:18:36;97538.13;;;27.15;54.45
41703;BME280;861;48.808;9.006;2023-07-09T07:21:04;97532.56;;;27.29;53.84
41703;BME280;861;48.808;9.006;2023-07-09T07:23:32;97537.34;;;27.43;53.56
41703;BME280;861;48.808;9.006;2023-07-09T07:25:59;97538.66;;;27.62;52.10
41703;BME280;861;48.808;9.006;2023-07-09T07:28:26;97542.38;;;27.74;52.69
41703;BME280;861;48.808;9.006;2023-07-09T07:31:05;97531.63;;;27.87;51.10
41703;BME280;861;48.808;9.006;2023-07-09T07:33:34;97535.88;;;27.97;50.54
41703;BME280;861;48.808;9.006;2023-07-09T07:36:05;97529.69;;;28.13;50.37
41703;BME280;861;48.808;9.006;2023-07-09T07:38:32;97525.78;;;28.25;49.84
41703;BME280;861;48.808;9.006;2023-07-09T07:40:59;97529.69;;;28.53;49.10
41703;BME280;861;48.808;9.006;2023-07-09T07:43:26;97525.09;;;28.50;49.34
41703;BME280;861;48.808;9.006;2023-07-09T07:45:53;97529.28;;;28.60;48.51
41703;BME280;861;48.808;9.006;2023-07-09T07:48:20;97526.91;;;28.79;49.14
41703;BME280;861;48.808;9.006;2023-07-09T07:50:47;97524.81;;;28.99;47.98
41703;BME280;861;48.808;9.006;2023-07-09T07:53:15;97511.22;;;29.18;47.87
41703;BME280;861;48.808;9.006;2023-07-09T07:55:42;97510.31;;;29.32;46.56
41703;BME280;861;48.808;9.006;2023-07-09T07:58:13;97509.63;;;29.79;44.42
41703;BME280;861;48.808;9.006;2023-07-09T08:00:41;97509.06;;;29.64;44.97
41703;BME280;861;48.808;9.006;2023-07-09T08:03:07;97507.97;;;29.61;46.88
41703;BME280;861;48.808;9.006;2023-07-09T08:05:34;97504.34;;;29.55;46.65
41703;BME280;861;48.808;9.006;2023-07-09T08:08:01;97511.84;;;29.64;46.83
41703;BME280;861;48.808;9.006;2023-07-09T08:10:27;97517.28;;;29.78;46.24
41703;BME280;861;48.808;9.006;2023-07-09T08:12:54;97512.56;;;29.96;46.89
41703;BME280;861;48.808;9.006;2023-07-09T08:15:25;97514.41;;;30.10;46.25
41703;BME280;861;48.808;9.006;2023-07-09T08:17:54;97523.13;;;30.17;45.29
41703;BME280;861;48.808;9.006;2023-07-09T08:20:20;97515.31;;;30.38;45.22
41703;BME280;861;48.808;9.006;2023-07-09T08:22:47;97514.56;;;30.48;44.58
41703;BME280;861;48.808;9.006;2023-07-09T08:25:13;97512.56;;;30.60;44.44
41703;BME280;861;48.808;9.006;2023-07-09T08:27:40;97506.69;;;30.69;43.68
41703;BME280;861;48.808;9.006;2023-07-09T08:30:07;97512.56;;;30.60;43.29
41703;BME280;861;48.808;9.006;2023-07-09T08:32:34;97513.06;;;30.58;42.99
41703;BME280;861;48.808;9.006;2023-07-09T08:35:01;97505.41;;;30.75;43.80
41703;BME280;861;48.808;9.006;2023-07-09T08:37:28;97507.78;;;30.88;42.94
41703;BME280;861;48.808;9.006;2023-07-09T08:39:54;97504.97;;;30.99;43.02
41703;BME280;861;48.808;9.006;2023-07-09T08:42:45;97506.00;;;31.07;42.67
41703;BME280;861;48.808;9.006;2023-07-09T08:48:35;97502.19;;;31.43;41.80
41703;BME280;861;48.808;9.006;2023-07-09T08:51:15;97508.59;;;31.44;42.25
41703;BME280;861;48.808;9.006;2023-07-09T08:53:57;97506.53;;;31.50;42.11
41703;BME280;861;48.808;9.006;2023-07-09T08:56:29;97510.34;;;31.52;42.39
41703;BME280;861;48.808;9.006;2023-07-09T08:59:02;97506.75;;;31.68;41.75
41703;BME280;861;48.808;9.006;2023-07-09T09:01:39;97517.47;;;31.81;40.63
41703;BME280;861;48.808;9.006;2023-07-09T09:04:31;97515.34;;;32.09;40.17
41703;BME280;861;48.808;9.006;2023-07-09T09:07:26;97513.06;;;32.13;39.63
41703;BME280;861;48.808;9.006;2023-07-09T09:10:04;97502.00;;;32.15;40.20
41703;BME280;861;48.808;9.006;2023-07-09T09:12:46;97509.47;;;32.12;41.54
41703;BME280;861;48.808;9.006;2023-07-09T09:15:21;97516.06;;;32.26;39.96
41703;BME280;861;48.808;9.006;2023-07-09T09:17:55;97521.16;;;32.33;39.25
41703;BME280;861;48.808;9.006;2023-07-09T09:20:42;97512.19;;;32.34;40.02
41703;BME280;861;48.808;9.006;2023-07-09T09:23:15;97517.81;;;32.45;39.59
41703;BME280;861;48.808;9.006;2023-07-09T09:25:52;97525.22;;;32.54;39.03
41703;BME280;861;48.808;9.006;2023-07-09T09:28:22;97514.34;;;32.69;39.68
41703;BME280;861;48.808;9.006;2023-07-09T09:30:51;97508.31;;;32.89;38.97
41703;BME280;861;48.808;9.006;2023-07-09T09:33:18;97511.59;;;32.99;38.59
41703;BME280;861;48.808;9.006;2023-07-09T09:35:46;97513.06;;;33.11;39.02
41703;BME280;861;48.808;9.006;2023-07-09T09:38:22;97509.09;;;33.25;38.31
41703;BME280;861;48.808;9.006;2023-07-09T09:40:49;97514.66;;;33.36;38.69
41703;BME280;861;48.808;9.006;2023-07-09T09:43:19;97516.06;;;33.53;38.25
41703;BME280;861;48.808;9.006;2023-07-09T09:45:51;97510.59;;;33.61;38.29
41703;BME280;861;48.808;9.006;2023-07-09T09:48:30;97511.13;;;33.83;36.95
41703;BME280;861;48.808;9.006;2023-07-09T09:50:59;97508.38;;;34.02;36.62
41703;BME280;861;48.808;9.006;2023-07-09T09:53:39;97506.91;;;34.20;36.88
41703;BME280;861;48.808;9.006;2023-07-09T09:56:25;97499.78;;;34.32;37.08
41703;BME280;861;48.808;9.006;2023-07-09T09:59:04;97494.69;;;34.49;37.34
41703;BME280;861;48.808;9.006;2023-07-09T10:01:35;97493.41;;;34.68;37.56
41703;BME280;861;48.808;9.006;2023-07-09T10:04:05;97484.59;;;34.72;37.42
41703;BME280;861;48.808;9.006;2023-07-09T10:06:41;97484.88;;;35.05;35.31
41703;BME280;861;48.808;9.006;2023-07-09T10:12:51;97473.97;;;34.96;35.21
41703;BME280;861;48.808;9.006;2023-07-09T10:19:14;97467.81;;;34.92;34.61
41703;BME280;861;48.808;9.006;2023-07-09T10:22:17;97474.22;;;35.11;35.55
41703;BME280;861;48.808;9.006;2023-07-09T10:28:23;97466.94;;;35.61;34.81
41703;BME280;861;48.808;9.006;2023-07-09T10:31:31;97463.47;;;35.68;34.50
41703;BME280;861;48.808;9.006;2023-07-09T10:34:53;97457.03;;;35.67;33.80
41703;BME280;861;48.808;9.006;2023-07-09T10:40:43;97464.59;;;35.91;33.76
41703;BME280;861;48.808;9.006;2023-07-09T10:43:32;97459.97;;;36.14;32.98
41703;BME280;861;48.808;9.006;2023-07-09T10:46:24;97455.72;;;36.46;32.95
41703;BME280;861;48.808;9.006;2023-07-09T10:49:00;97446.47;;;36.66;33.48
41703;BME280;861;48.808;9.006;2023-07-09T10:51:48;97449.47;;;36.81;32.33
41703;BME280;861;48.808;9.006;2023-07-09T10:54:44;97443.41;;;36.98;31.64
41703;BME280;861;48.808;9.006;2023-07-09T11:00:22;97456.22;;;36.92;31.19
41703;BME280;861;48.808;9.006;2023-07-09T11:03:14;97437.84;;;37.13;31.82
41703;BME280;861;48.808;9.006;2023-07-09T11:05:45;97440.03;;;37.41;31.81
41703;BME280;861;48.808;9.006;2023-07-09T11:08:25;97434.94;;;37.47;30.65
41703;BME280;861;48.808;9.006;2023-07-09T11:11:32;97430.22;;;37.49;30.44
41703;BME280;861;48.808;9.006;2023-07-09T11:14:20;97439.69;;;37.44;31.16
41703;BME280;861;48.808;9.006;2023-07-09T11:16:57;97426.88;;;37.58;30.26
41703;BME280;861;48.808;9.006;2023-07-09T11:19:26;97438.28;;;37.86;30.78
41703;BME280;861;48.808;9.006;2023-07-09T11:22:16;97435.00;;;38.10;30.45
41703;BME280;861;48.808;9.006;2023-07-09T11:25:13;97429.38;;;38.18;30.37
41703;BME280;861;48.808;9.006;2023-07-09T11:27:51;97422.84;;;38.53;30.05
41703;BME280;861;48.808;9.006;2023-07-09T11:30:26;97425.97;;;38.78;28.99
41703;BME280;861;48.808;9.006;2023-07-09T11:33:26;97434.50;;;38.70;28.45
41703;BME280;861;48.808;9.006;2023-07-09T11:36:11;97424.50;;;38.34;28.84
41703;BME280;861;48.808;9.006;2023-07-09T11:38:46;97427.00;;;38.52;29.22
41703;BME280;861;48.808;9.006;2023-07-09T11:41:39;97414.41;;;38.91;28.97
41703;BME280;861;48.808;9.006;2023-07-09T11:44:25;97414.84;;;39.10;28.28
41703;BME280;861;48.808;9.006;2023-07-09T11:47:28;97419.56;;;39.37;28.58
41703;BME280;861;48.808;9.006;2023-07-09T11:50:30;97417.09;;;39.41;28.18
41703;BME280;861;48.808;9.006;2023-07-09T11:53:16;97410.66;;;39.48;28.25
41703;BME280;861;48.808;9.006;2023-07-09T11:56:03;97410.66;;;39.48;28.79
41703;BME280;861;48.808;9.006;2023-07-09T11:58:30;97415.03;;;39.49;28.97
41703;BME280;861;48.808;9.006;2023-07-09T12:01:00;97410.25;;;39.67;28.20
41703;BME280;861;48.808;9.006;2023-07-09T12:03:36;97408.16;;;39.67;27.34
41703;BME280;861;48.808;9.006;2023-07-09T12:06:26;97412.72;;;39.71;27.01
41703;BME280;861;48.808;9.006;2023-07-09T12:08:57;97406.63;;;39.74;26.58
41703;BME280;861;48.808;9.006;2023-07-09T12:11:34;97408.34;;;39.62;26.93
41703;BME280;861;48.808;9.006;2023-07-09T12:14:12;97409.25;;;39.95;27.20
41703;BME280;861;48.808;9.006;2023-07-09T12:16:51;97407.25;;;40.20;26.38
41703;BME280;861;48.808;9.006;2023-07-09T12:19:28;97401.03;;;40.14;25.54
41703;BME280;861;48.808;9.006;2023-07-09T12:21:59;97396.78;;;40.22;26.31
41703;BME280;861;48.808;9.006;2023-07-09T12:24:34;97404.19;;;40.33;25.39
41703;BME280;861;48.808;9.006;2023-07-09T12:27:21;97396.38;;;40.33;25.25
41703;BME280;861;48.808;9.006;2023-07-09T12:29:58;97394.56;;;40.53;26.60
41703;BME280;861;48.808;9.006;2023-07-09T12:32:25;97389.25;;;40.49;25.68
41703;BME280;861;48.808;9.006;2023-07-09T12:34:55;97386.31;;;40.17;25.38
41703;BME280;861;48.808;9.006;2023-07-09T12:37:28;97386.13;;;39.45;25.70
41703;BME280;861;48.808;9.006;2023-07-09T12:40:01;97379.84;;;39.24;25.61
41703;BME280;861;48.808;9.006;2023-07-09T12:42:36;97382.31;;;39.58;26.68
41703;BME280;861;48.808;9.006;2023-07-09T12:45:05;97379.00;;;39.99;25.05
41703;BME280;861;48.808;9.006;2023-07-09T12:47:40;97375.94;;;40.44;24.72
41703;BME280;861;48.808;9.006;2023-07-09T12:50:34;97364.22;;;40.25;25.78
41703;BME280;861;48.808;9.006;2023-07-09T12:53:16;97359.19;;;40.41;25.68
41703;BME280;861;48.808;9.006;2023-07-09T12:55:49;97360.03;;;40.66;26.02
41703;BME280;861;48.808;9.006;2023-07-09T12:58:25;97361.28;;;40.80;25.61
41703;BME280;861;48.808;9.006;2023-07-09T13:00:59;97360.84;;;41.08;25.48
41703;BME280;861;48.808;9.006;2023-07-09T13:03:33;97357.06;;;41.05;24.80
41703;BME280;861;48.808;9.006;2023-07-09T13:06:05;97360.81;;;40.91;25.17
41703;BME280;861;48.808;9.006;2023-07-09T13:08:58;97354.66;;;40.94;24.56
41703;BME280;861;48.808;9.006;2023-07-09T13:11:34;97350.41;;;41.03;25.64
41703;BME280;861;48.808;9.006;2023-07-09T13:16:51;97335.34;;;41.10;23.95
41703;BME280;861;48.808;9.006;2023-07-09T13:19:19;97326.84;;;41.20;23.00
41703;BME280;861;48.808;9.006;2023-07-09T13:21:46;97330.81;;;41.24;23.04
41703;BME280;861;48.808;9.006;2023-07-09T13:24:30;97332.31;;;41.25;23.45
41703;BME280;861;48.808;9.006;2023-07-09T13:27:02;97327.31;;;41.67;23.38
41703;BME280;861;48.808;9.006;2023-07-09T13:29:30;97331.28;;;41.89;23.76
41703;BME280;861;48.808;9.006;2023-07-09T13:31:57;97327.94;;;42.00;23.87
41703;BME280;861;48.808;9.006;2023-07-09T13:34:27;97325.31;;;41.94;23.96
41703;BME280;861;48.808;9.006;2023-07-09T13:36:59;97317.44;;;42.12;24.14
41703;BME280;861;48.808;9.006;2023-07-09T13:39:26;97315.59;;;42.07;23.92
41703;BME280;861;48.808;9.006;2023-07-09T13:41:54;97316.63;;;42.02;24.22
41703;BME280;861;48.808;9.006;2023-07-09T13:44:29;97319.06;;;41.88;24.48
41703;BME280;861;48.808;9.006;2023-07-09T13:46:59;97310.56;;;41.81;23.66
41703;BME280;861;48.808;9.006;2023-07-09T13:49:27;97317.91;;;41.57;23.72
41703;BME280;861;48.808;9.006;2023-07-09T13:51:58;97312.44;;;41.69;23.90
41703;BME280;861;48.808;9.006;2023-07-09T13:54:31;97320.50;;;41.97;21.83
41703;BME280;861;48.808;9.006;2023-07-09T13:57:10;97317.28;;;42.10;22.62
41703;BME280;861;48.808;9.006;2023-07-09T13:59:40;97314.25;;;42.08;21.77
41703;BME280;861;48.808;9.006;2023-07-09T14:02:26;97310.22;;;42.11;23.14
41703;BME280;861;48.808;9.006;2023-07-09T14:05:01;97311.50;;;42.27;22.30
41703;BME280;861;48.808;9.006;2023-07-09T14:07:34;97310.84;;;42.36;21.50
41703;BME280;861;48.808;9.006;2023-07-09T14:10:12;97300.59;;;42.33;21.75
41703;BME280;861;48.808;9.006;2023-07-09T14:12:47;97306.94;;;41.97;22.10
41703;BME280;861;48.808;9.006;2023-07-09T14:15:20;97297.53;;;41.70;22.04
41703;BME280;861;48.808;9.006;2023-07-09T14:21:21;97300.31;;;41.61;22.75